Time;durP1;ratioP1;P1;durP2;ratioP2;P2;SDS_P1;SDS_P2;PMS_P1;PMS_P2;Temp;Humidity;BMP_temperature;BMP_pressure;BME280_temperature;BME280_humidity;BME280_pressure;Samples;Min_cycle;Max_cycle;Signal;HPM_P1;HPM_P2
2024/03/30 00:00:48;;;;;;;2.80;1.92;;;;;;;10.19;100.00;99700.72;5072936;28;20032;-78
2024/03/30 00:03:14;;;;;;;4.45;1.80;;;;;;;10.19;100.00;99708.69;5073409;28;20145;-77
2024/03/30 00:05:39;;;;;;;4.97;1.45;;;;;;;10.16;100.00;99709.00;5073156;28;20496;-77
2024/03/30 00:08:05;;;;;;;2.30;1.65;;;;;;;10.16;100.00;99709.84;5070752;28;20052;-78
2024/03/30 00:10:31;;;;;;;2.80;1.75;;;;;;;10.15;100.00;99705.53;5072931;28;20452;-75
2024/03/30 00:12:56;;;;;;;2.67;1.67;;;;;;;10.11;100.00;99714.00;5072620;28;20037;-75
2024/03/30 00:15:26;;;;;;;3.05;1.60;;;;;;;10.03;100.00;99707.66;5073211;28;20029;-76
2024/03/30 00:17:51;;;;;;;2.33;1.65;;;;;;;9.97;100.00;99710.13;5072221;28;20117;-76
2024/03/30 00:20:16;;;;;;;3.00;1.30;;;;;;;9.85;100.00;99713.13;5072689;28;20028;-76
2024/03/30 00:22:42;;;;;;;1.88;1.67;;;;;;;9.72;100.00;99710.09;5072667;28;20032;-75
2024/03/30 00:25:07;;;;;;;1.48;1.35;;;;;;;9.61;100.00;99707.72;5071066;28;20033;-75
2024/03/30 00:27:32;;;;;;;4.28;1.58;;;;;;;9.51;100.00;99706.03;5070850;28;20029;-75
2024/03/30 00:29:58;;;;;;;1.95;1.60;;;;;;;9.43;100.00;99705.97;5072229;28;20035;-76
2024/03/30 00:32:23;;;;;;;3.97;2.17;;;;;;;9.40;100.00;99708.94;5072463;28;20106;-75
2024/03/30 00:34:48;;;;;;;4.00;1.45;;;;;;;9.39;100.00;99712.59;5072373;28;20366;-75
2024/03/30 00:37:14;;;;;;;1.45;1.20;;;;;;;9.39;100.00;99712.59;5070824;28;20357;-75
2024/03/30 00:39:39;;;;;;;2.03;1.27;;;;;;;9.38;100.00;99712.78;5070908;28;20115;-75
2024/03/30 00:42:04;;;;;;;2.78;1.30;;;;;;;9.40;100.00;99711.59;5071944;28;20086;-75
2024/03/30 00:44:32;;;;;;;1.45;1.27;;;;;;;9.39;100.00;99714.41;5072280;28;20524;-76
2024/03/30 00:46:57;;;;;;;1.67;1.38;;;;;;;9.39;100.00;99711.75;5071862;28;20036;-75
2024/03/30 00:49:22;;;;;;;2.47;1.40;;;;;;;9.37;100.00;99713.75;5072371;28;20330;-75
2024/03/30 00:51:48;;;;;;;1.40;1.30;;;;;;;9.32;100.00;99701.78;5072540;28;20452;-75
2024/03/30 00:54:13;;;;;;;2.08;1.42;;;;;;;9.30;100.00;99703.78;5072161;28;20081;-75
2024/03/30 00:56:38;;;;;;;3.08;1.35;;;;;;;9.27;100.00;99693.47;5071878;28;20071;-75
2024/03/30 00:59:05;;;;;;;3.03;1.20;;;;;;;9.23;100.00;99691.28;5071866;28;20109;-76
2024/03/30 01:01:30;;;;;;;2.40;1.20;;;;;;;9.20;100.00;99700.41;5072288;28;20032;-75
2024/03/30 01:03:55;;;;;;;1.42;1.30;;;;;;;9.16;100.00;99705.16;5071766;28;20109;-76
2024/03/30 01:06:21;;;;;;;3.28;1.33;;;;;;;9.15;100.00;99708.84;5072264;28;20032;-76
2024/03/30 01:08:46;;;;;;;3.10;1.15;;;;;;;9.13;100.00;99700.19;5071970;28;20135;-76
2024/03/30 01:11:12;;;;;;;2.25;1.20;;;;;;;9.10;100.00;99708.47;5071831;28;20123;-76
2024/03/30 01:13:37;;;;;;;2.20;1.40;;;;;;;9.09;100.00;99719.22;5070336;28;20090;-76
2024/03/30 01:16:12;;;;;;;1.98;1.40;;;;;;;9.05;100.00;99716.06;5071375;28;20108;-76
2024/03/30 01:18:38;;;;;;;1.45;1.30;;;;;;;9.03;100.00;99710.06;5071735;28;20476;-76
2024/03/30 01:21:04;;;;;;;2.63;1.20;;;;;;;9.02;100.00;99708.44;5069832;28;20040;-76
2024/03/30 01:23:30;;;;;;;2.95;1.25;;;;;;;8.98;100.00;99710.53;5070169;28;20051;-75
2024/03/30 01:25:58;;;;;;;1.20;1.10;;;;;;;8.93;100.00;99707.53;5071668;28;20036;-75
2024/03/30 01:28:25;;;;;;;2.10;1.45;;;;;;;8.89;100.00;99702.69;5071337;28;20047;-75
2024/03/30 01:30:50;;;;;;;1.30;1.20;;;;;;;8.87;100.00;99692.25;5071488;28;20055;-76
2024/03/30 01:33:18;;;;;;;2.22;1.33;;;;;;;8.85;100.00;99693.38;5070948;28;20133;-76
2024/03/30 01:35:44;;;;;;;1.30;1.20;;;;;;;8.81;100.00;99695.53;5069929;28;20044;-75
2024/03/30 01:38:09;;;;;;;2.72;1.30;;;;;;;8.78;100.00;99696.66;5071020;28;20032;-76
2024/03/30 01:40:35;;;;;;;2.65;1.33;;;;;;;8.76;100.00;99696.00;5071183;28;20036;-75
2024/03/30 01:43:03;;;;;;;3.65;1.40;;;;;;;8.75;100.00;99701.47;5071008;28;20036;-75
2024/03/30 01:45:34;;;;;;;2.63;1.70;;;;;;;8.73;100.00;99703.41;5071224;28;20461;-75
2024/03/30 01:48:01;;;;;;;1.92;1.38;;;;;;;8.68;100.00;99693.28;5070948;28;20055;-75
2024/03/30 01:50:29;;;;;;;2.00;1.70;;;;;;;8.65;100.00;99688.28;5071146;28;20520;-76
2024/03/30 01:52:55;;;;;;;1.92;1.45;;;;;;;8.64;100.00;99683.94;5068879;28;20357;-75
2024/03/30 01:55:20;;;;;;;3.05;1.45;;;;;;;8.61;100.00;99685.13;5070133;28;20032;-75
2024/03/30 01:57:45;;;;;;;2.70;1.50;;;;;;;8.60;100.00;99675.50;5069702;28;20039;-75
2024/03/30 02:00:11;;;;;;;5.95;1.65;;;;;;;8.59;100.00;99675.66;5068938;28;20111;-75
2024/03/30 02:02:36;;;;;;;3.90;1.70;;;;;;;8.55;100.00;99661.84;5070940;28;20033;-76
2024/03/30 02:05:02;;;;;;;3.83;1.50;;;;;;;8.52;100.00;99675.41;5070909;28;20307;-75
2024/03/30 02:07:28;;;;;;;1.50;1.40;;;;;;;8.49;100.00;99673.06;5069774;28;20063;-75
2024/03/30 02:09:54;;;;;;;3.70;1.45;;;;;;;8.46;100.00;99678.69;5070952;28;20150;-75
2024/03/30 02:12:21;;;;;;;2.20;1.35;;;;;;;8.45;100.00;99669.91;5070507;28;20028;-75
2024/03/30 02:14:48;;;;;;;3.55;1.52;;;;;;;8.45;100.00;99669.09;5070460;28;20033;-76
2024/03/30 02:17:13;;;;;;;3.90;1.23;;;;;;;8.44;100.00;99665.59;5070596;28;20033;-75
2024/03/30 02:19:45;;;;;;;2.38;1.80;;;;;;;8.43;100.00;99669.22;5070467;28;20028;-76
2024/03/30 02:22:10;;;;;;;;;;;;;;;8.44;100.00;99678.84;5070722;28;20044;-76
2024/03/30 02:24:35;;;;;;;1.42;1.33;;;;;;;8.43;100.00;99679.81;5070871;28;19908;-75
2024/03/30 02:27:01;;;;;;;3.63;1.73;;;;;;;8.41;100.00;99692.38;5070691;28;20072;-75
2024/03/30 02:29:30;;;;;;;1.75;1.45;;;;;;;8.40;100.00;99690.69;5068792;28;20089;-75
2024/03/30 02:31:55;;;;;;;2.50;1.60;;;;;;;8.40;100.00;99684.56;5070557;28;20051;-75
2024/03/30 02:34:20;;;;;;;4.90;1.80;;;;;;;8.40;100.00;99689.88;5069018;28;20044;-75
2024/03/30 02:36:49;;;;;;;2.00;1.52;;;;;;;8.37;100.00;99685.69;5070827;28;20098;-75
2024/03/30 02:39:14;;;;;;;2.55;1.42;;;;;;;8.42;100.00;99691.41;5070096;28;20032;-76
2024/03/30 02:41:39;;;;;;;3.75;1.80;;;;;;;8.45;100.00;99691.13;5069369;28;20116;-76
2024/03/30 02:44:05;;;;;;;3.13;1.45;;;;;;;8.49;100.00;99693.47;5070979;28;20366;-75
2024/03/30 02:46:30;;;;;;;3.55;1.83;;;;;;;8.51;100.00;99691.47;5069966;28;20549;-75
2024/03/30 02:48:55;;;;;;;2.13;1.50;;;;;;;8.50;100.00;99681.88;5070638;28;20426;-75
2024/03/30 02:51:21;;;;;;;2.95;1.60;;;;;;;8.48;100.00;99674.09;5070117;28;20029;-75
2024/03/30 02:53:46;;;;;;;3.92;2.03;;;;;;;8.45;100.00;99683.16;5070281;28;20028;-74
2024/03/30 02:56:11;;;;;;;3.67;1.67;;;;;;;8.40;100.00;99679.28;5068372;28;20043;-75
2024/03/30 02:58:37;;;;;;;1.60;1.50;;;;;;;8.34;100.00;99675.41;5070100;28;20473;-75
2024/03/30 03:01:02;;;;;;;5.03;1.80;;;;;;;8.31;100.00;99675.72;5070027;28;20429;-74
2024/03/30 03:03:27;;;;;;;1.95;1.50;;;;;;;8.28;100.00;99674.22;5069563;28;20028;-75
2024/03/30 03:05:56;;;;;;;3.30;1.50;;;;;;;8.25;100.00;99673.69;5069722;28;20554;-74
2024/03/30 03:08:27;;;;;;;2.03;1.75;;;;;;;8.23;100.00;99678.31;5069484;28;20086;-75
2024/03/30 03:10:53;;;;;;;2.43;1.90;;;;;;;8.22;100.00;99674.00;5070393;28;20090;-75
2024/03/30 03:13:18;;;;;;;1.95;1.60;;;;;;;8.21;100.00;99673.16;5068200;28;20277;-75
2024/03/30 03:15:43;;;;;;;2.97;1.63;;;;;;;8.19;100.00;99669.00;5069760;28;20433;-75
2024/03/30 03:18:09;;;;;;;1.80;1.70;;;;;;;8.17;100.00;99665.69;5069939;28;20032;-75
2024/03/30 03:20:34;;;;;;;2.03;1.80;;;;;;;8.15;100.00;99671.13;5069484;28;20087;-75
2024/03/30 03:23:00;;;;;;;2.75;1.70;;;;;;;8.14;100.00;99672.09;5069889;28;20123;-75
2024/03/30 03:25:25;;;;;;;2.50;1.75;;;;;;;8.13;100.00;99683.69;5069378;28;20063;-75
2024/03/30 03:27:51;;;;;;;2.40;1.80;;;;;;;8.10;100.00;99682.16;5069485;28;20068;-75
2024/03/30 03:30:18;;;;;;;2.15;1.67;;;;;;;8.06;100.00;99670.22;5069291;28;20116;-76
2024/03/30 03:32:45;;;;;;;3.53;2.10;;;;;;;8.03;100.00;99674.97;5069564;28;20381;-76
2024/03/30 03:35:11;;;;;;;2.00;1.80;;;;;;;7.99;100.00;99668.31;5069622;28;20028;-76
2024/03/30 03:37:36;;;;;;;2.63;2.03;;;;;;;7.93;100.00;99669.75;5069461;28;20499;-76
2024/03/30 03:40:02;;;;;;;2.92;2.05;;;;;;;7.88;100.00;99661.41;5069610;28;20120;-75
2024/03/30 03:42:27;;;;;;;3.78;1.75;;;;;;;7.83;100.00;99659.22;5069257;28;20127;-76
2024/03/30 03:44:53;;;;;;;2.83;1.80;;;;;;;7.79;100.00;99657.03;5069408;28;20031;-75
2024/03/30 03:47:18;;;;;;;2.20;1.95;;;;;;;7.77;100.00;99657.16;5069213;28;20455;-76
2024/03/30 03:49:43;;;;;;;2.85;1.90;;;;;;;7.73;100.00;99651.34;5068232;28;20028;-76
2024/03/30 03:52:09;;;;;;;3.85;2.33;;;;;;;7.70;100.00;99653.44;5069418;28;20025;-76
2024/03/30 03:54:34;;;;;;;2.42;2.22;;;;;;;7.68;100.00;99660.72;5069284;28;20193;-76
2024/03/30 03:56:59;;;;;;;2.70;2.38;;;;;;;7.65;100.00;99664.50;5069370;28;20024;-76
2024/03/30 03:59:26;;;;;;;3.90;2.55;;;;;;;7.62;100.00;99662.16;5067618;28;20040;-76
2024/03/30 04:01:51;;;;;;;3.60;2.80;;;;;;;7.59;100.00;99647.38;5069510;28;20065;-76
2024/03/30 04:04:17;;;;;;;4.38;3.00;;;;;;;7.57;100.00;99648.53;5069331;28;20115;-75
2024/03/30 04:06:43;;;;;;;3.78;3.00;;;;;;;7.56;100.00;99641.56;5068642;28;20161;-76
2024/03/30 04:09:08;;;;;;;5.60;3.60;;;;;;;7.56;100.00;99636.28;5050822;28;20076;-76
2024/03/30 04:11:34;;;;;;;4.57;3.72;;;;;;;7.55;100.00;99648.69;5068773;28;20080;-76
2024/03/30 04:13:59;;;;;;;4.97;3.92;;;;;;;7.56;100.00;99650.31;5069321;28;20401;-76
2024/03/30 04:16:25;;;;;;;4.85;3.53;;;;;;;7.55;100.00;99640.75;5069888;28;20090;-76
2024/03/30 04:18:51;;;;;;;4.45;3.58;;;;;;;7.55;100.00;99635.44;5072746;28;20047;-76
2024/03/30 04:21:19;;;;;;;4.20;3.45;;;;;;;7.57;100.00;99641.41;5072795;28;20028;-76
2024/03/30 04:23:45;;;;;;;3.90;3.30;;;;;;;7.57;100.00;99637.94;5054000;28;20044;-76
2024/03/30 04:26:14;;;;;;;3.90;3.50;;;;;;;7.56;100.00;99641.56;5072735;28;20141;-76
2024/03/30 04:28:40;;;;;;;5.95;3.60;;;;;;;7.56;100.00;99639.75;5072087;28;20040;-76
2024/03/30 04:31:06;;;;;;;4.53;3.55;;;;;;;7.56;100.00;99637.09;5072231;28;20032;-76
2024/03/30 04:33:32;;;;;;;4.40;3.30;;;;;;;7.55;100.00;99635.44;5072205;28;20059;-76
2024/03/30 04:36:02;;;;;;;5.00;3.30;;;;;;;7.55;100.00;99639.88;5072771;28;20055;-76
2024/03/30 04:38:29;;;;;;;5.07;3.30;;;;;;;7.54;100.00;99633.78;5071914;28;20037;-76
2024/03/30 04:41:07;;;;;;;7.78;3.55;;;;;;;7.53;100.00;99628.63;5072507;28;20108;-76
2024/03/30 04:43:35;;;;;;;4.20;3.20;;;;;;;7.53;100.00;99620.69;5071880;28;20063;-75
2024/03/30 04:46:01;;;;;;;4.07;3.33;;;;;;;7.53;100.00;99618.03;5072433;28;20076;-76
2024/03/30 04:48:28;;;;;;;7.35;3.70;;;;;;;7.52;100.00;99619.00;5071718;28;20071;-77
2024/03/30 04:50:55;;;;;;;5.05;3.50;;;;;;;7.51;100.00;99619.97;5071895;28;20056;-77
2024/03/30 04:53:24;;;;;;;4.07;3.65;;;;;;;7.49;100.00;99608.72;5072246;28;20063;-77
2024/03/30 04:55:51;;;;;;;7.28;3.60;;;;;;;7.48;100.00;99613.19;5071360;28;20178;-77
2024/03/30 04:58:19;;;;;;;4.45;3.72;;;;;;;7.48;100.00;99620.28;5072144;28;20115;-76
2024/03/30 05:00:45;;;;;;;4.82;3.78;;;;;;;7.49;100.00;99614.84;5071728;28;20036;-76
2024/03/30 05:03:10;;;;;;;5.60;4.00;;;;;;;7.48;100.00;99613.19;5070445;28;20032;-77
2024/03/30 05:05:35;;;;;;;5.57;3.90;;;;;;;7.48;100.00;99615.00;5070286;28;20043;-77
2024/03/30 05:08:00;;;;;;;5.20;3.88;;;;;;;7.47;100.00;99606.22;5069957;28;20056;-77
2024/03/30 05:10:26;;;;;;;5.15;4.00;;;;;;;7.47;100.00;99610.69;5071880;28;20108;-77
2024/03/30 05:12:51;;;;;;;6.25;3.92;;;;;;;7.47;100.00;99618.63;5071323;28;20033;-77
2024/03/30 05:15:16;;;;;;;4.85;3.70;;;;;;;7.45;100.00;99621.44;5071791;28;20062;-76
2024/03/30 05:17:42;;;;;;;4.70;4.10;;;;;;;7.46;100.00;99611.66;5071210;28;20044;-77
2024/03/30 05:22:51;;;;;;;7.63;4.85;;;;;;;7.46;100.00;99616.97;5071143;28;20039;-76
2024/03/30 05:25:16;;;;;;;7.35;4.82;;;;;;;7.44;100.00;99613.66;5071354;28;20024;-76
2024/03/30 05:27:42;;;;;;;7.80;5.55;;;;;;;7.44;100.00;99613.66;5070812;28;20036;-77
2024/03/30 05:30:08;;;;;;;7.63;6.10;;;;;;;7.44;100.00;99608.34;5071340;28;20035;-77
2024/03/30 05:32:33;;;;;;;7.35;5.65;;;;;;;7.45;100.00;99610.84;5070986;28;20537;-77
2024/03/30 05:34:58;;;;;;;11.70;7.28;;;;;;;7.45;100.00;99607.34;5070064;28;20115;-77
2024/03/30 05:37:24;;;;;;;10.38;7.45;;;;;;;7.45;100.00;99608.19;5071580;28;20108;-76
2024/03/30 05:39:49;;;;;;;10.93;8.32;;;;;;;7.42;100.00;99605.84;5052705;28;20032;-76
2024/03/30 05:42:15;;;;;;;10.70;8.07;;;;;;;7.42;100.00;99613.78;5071348;28;20349;-76
2024/03/30 05:44:40;;;;;;;10.18;7.25;;;;;;;7.41;100.00;99615.59;5071078;28;20033;-77
2024/03/30 05:47:05;;;;;;;9.65;7.55;;;;;;;7.41;100.00;99614.78;5071483;28;20174;-76
2024/03/30 05:49:30;;;;;;;10.18;7.43;;;;;;;7.40;100.00;99616.59;5071227;28;20039;-76
2024/03/30 05:51:56;;;;;;;13.77;8.90;;;;;;;7.39;100.00;99617.56;5068794;28;20037;-76
2024/03/30 05:54:21;;;;;;;13.32;9.15;;;;;;;7.41;100.00;99625.34;5068902;28;20029;-76
2024/03/30 05:56:46;;;;;;;13.70;9.30;;;;;;;7.42;100.00;99629.69;5068499;28;20036;-76
2024/03/30 05:59:12;;;;;;;14.77;9.65;;;;;;;7.40;100.00;99624.53;5068920;28;20121;-76
2024/03/30 06:01:37;;;;;;;11.35;9.00;;;;;;;7.40;100.00;99628.97;5068416;28;20460;-77
2024/03/30 06:04:02;;;;;;;14.23;9.18;;;;;;;7.38;100.00;99621.19;5070250;28;20040;-76
2024/03/30 06:06:28;;;;;;;13.10;9.38;;;;;;;7.39;100.00;99629.97;5070977;28;20032;-77
2024/03/30 06:08:53;;;;;;;14.15;9.40;;;;;;;7.40;100.00;99627.19;5070205;28;20048;-76
2024/03/30 06:11:18;;;;;;;11.60;9.55;;;;;;;7.39;100.00;99619.38;5070689;28;20032;-76
2024/03/30 06:13:44;;;;;;;11.80;9.45;;;;;;;7.39;100.00;99616.75;5068711;28;20468;-77
2024/03/30 06:16:09;;;;;;;14.40;9.35;;;;;;;7.38;100.00;99623.81;5070802;28;20090;-75
2024/03/30 06:18:34;;;;;;;14.10;8.55;;;;;;;7.37;100.00;99622.16;5070825;28;20342;-77
2024/03/30 06:21:00;;;;;;;12.75;9.18;;;;;;;7.37;100.00;99630.09;5070522;28;20111;-77
2024/03/30 06:23:25;;;;;;;9.90;8.02;;;;;;;7.37;100.00;99632.75;5070679;28;20469;-77
2024/03/30 06:25:50;;;;;;;12.70;8.82;;;;;;;7.35;100.00;99624.13;5069885;28;20112;-77
2024/03/30 06:28:18;;;;;;;12.00;8.00;;;;;;;7.37;100.00;99629.28;5070664;28;20032;-76
2024/03/30 06:30:43;;;;;;;9.68;8.55;;;;;;;7.36;100.00;99623.16;5068466;28;20024;-77
2024/03/30 06:33:10;;;;;;;10.52;8.73;;;;;;;7.36;100.00;99617.00;5070594;28;20074;-77
2024/03/30 06:35:37;;;;;;;11.45;9.10;;;;;;;7.40;100.00;99618.38;5070478;28;20103;-76
2024/03/30 06:38:03;;;;;;;15.80;8.85;;;;;;;7.40;100.00;99621.03;5069408;28;20048;-76
2024/03/30 06:45:56;;;;;;;11.38;8.73;;;;;;;7.46;100.00;99625.72;5069562;28;20064;-77
2024/03/30 06:48:21;;;;;;;10.85;8.85;;;;;;;7.48;100.00;99631.72;5070133;28;20329;-76
2024/03/30 06:50:47;;;;;;;11.68;9.48;;;;;;;7.48;100.00;99630.88;5069773;28;20064;-77
2024/03/30 06:53:12;;;;;;;12.30;9.18;;;;;;;7.51;100.00;99627.94;5069866;28;20029;-77
2024/03/30 06:55:38;;;;;;;10.98;9.45;;;;;;;7.53;100.00;99628.63;5070364;28;20028;-77
2024/03/30 06:58:03;;;;;;;12.02;9.55;;;;;;;7.53;100.00;99624.16;5069579;28;20036;-76
2024/03/30 07:00:28;;;;;;;12.27;10.30;;;;;;;7.57;100.00;99636.13;5069689;28;20028;-77
2024/03/30 07:02:54;;;;;;;14.60;10.40;;;;;;;7.60;100.00;99637.66;5069462;28;20033;-77
2024/03/30 07:05:19;;;;;;;12.95;10.50;;;;;;;7.58;100.00;99631.66;5069986;28;20109;-77
2024/03/30 07:07:44;;;;;;;13.85;10.93;;;;;;;7.58;100.00;99634.28;5067827;28;20136;-79
2024/03/30 07:10:10;;;;;;;14.55;10.75;;;;;;;7.58;100.00;99640.44;5070177;28;20064;-77
2024/03/30 07:12:37;;;;;;;13.52;11.18;;;;;;;7.59;100.00;99638.63;5069692;28;20469;-76
2024/03/30 07:15:03;;;;;;;12.02;9.85;;;;;;;7.61;100.00;99639.28;5069426;28;20039;-78
2024/03/30 07:17:28;;;;;;;11.38;9.38;;;;;;;7.62;100.00;99637.50;5069997;28;20029;-77
2024/03/30 07:19:53;;;;;;;13.65;10.57;;;;;;;7.61;100.00;99638.47;5069292;28;20028;-77
2024/03/30 07:22:19;;;;;;;13.88;10.90;;;;;;;7.65;100.00;99638.03;5068199;28;20039;-77
2024/03/30 07:24:47;;;;;;;12.60;10.13;;;;;;;7.69;100.00;99641.22;5069508;28;20040;-77
2024/03/30 07:27:12;;;;;;;16.70;10.85;;;;;;;7.72;100.00;99646.22;5069603;28;20333;-76
2024/03/30 07:29:38;;;;;;;15.25;10.30;;;;;;;7.74;100.00;99647.69;5068292;28;20032;-77
2024/03/30 07:32:03;;;;;;;13.82;9.55;;;;;;;7.77;100.00;99641.28;5069609;28;20040;-77
2024/03/30 07:34:29;;;;;;;12.82;10.20;;;;;;;7.77;100.00;99659.81;5068437;28;20044;-76
2024/03/30 07:36:54;;;;;;;13.18;9.88;;;;;;;7.77;100.00;99649.22;5069686;28;20060;-77
2024/03/30 07:39:20;;;;;;;14.05;10.02;;;;;;;7.80;100.00;99653.41;5069795;28;20395;-77
2024/03/30 07:41:45;;;;;;;13.50;9.45;;;;;;;7.81;100.00;99644.44;5068328;28;20488;-77
2024/03/30 07:44:11;;;;;;;12.20;9.75;;;;;;;7.80;100.00;99648.09;5069152;28;20039;-76
2024/03/30 07:46:37;;;;;;;13.55;9.98;;;;;;;7.82;100.00;99649.59;5068433;28;20028;-76
2024/03/30 07:49:03;;;;;;;12.90;10.00;;;;;;;7.84;100.00;99649.47;5069158;28;20040;-76
2024/03/30 07:51:28;;;;;;;14.15;11.23;;;;;;;7.86;100.00;99658.09;5071050;28;20028;-75
2024/03/30 07:53:54;;;;;;;17.60;11.88;;;;;;;7.83;100.00;99653.91;5073182;28;20024;-76
2024/03/30 07:56:24;;;;;;;16.42;12.00;;;;;;;7.83;100.00;99648.63;5072192;28;20127;-76
2024/03/30 07:58:49;;;;;;;19.33;13.27;;;;;;;7.85;100.00;99656.41;5073403;28;20043;-76
2024/03/30 08:01:15;;;;;;;14.70;11.85;;;;;;;7.87;100.00;99665.06;5073223;28;20274;-76
2024/03/30 08:03:40;;;;;;;15.32;11.88;;;;;;;7.87;100.00;99665.06;5073522;28;20071;-75
2024/03/30 08:06:06;;;;;;;17.52;12.85;;;;;;;7.92;100.00;99666.25;5072929;28;20097;-76
2024/03/30 08:08:32;;;;;;;16.65;12.75;;;;;;;7.95;100.00;99662.47;5073210;28;20059;-76
2024/03/30 08:10:58;;;;;;;20.67;13.32;;;;;;;7.94;100.00;99658.16;5071215;28;20380;-75
2024/03/30 08:13:23;;;;;;;17.08;13.85;;;;;;;7.94;100.00;99656.38;5072905;28;20111;-75
2024/03/30 08:15:49;;;;;;;17.30;13.43;;;;;;;7.97;100.00;99647.25;5073326;28;20048;-75
2024/03/30 08:18:17;;;;;;;20.65;15.10;;;;;;;7.98;100.00;99637.50;5072385;28;20059;-76
2024/03/30 08:20:42;;;;;;;19.20;13.77;;;;;;;8.01;100.00;99622.13;5072917;28;20032;-75
2024/03/30 08:23:08;;;;;;;19.33;13.98;;;;;;;8.05;100.00;99620.84;5072715;28;20033;-75
2024/03/30 08:25:36;;;;;;;18.25;13.68;;;;;;;8.05;100.00;99623.50;5073038;28;20029;-75
2024/03/30 08:28:02;;;;;;;20.05;14.45;;;;;;;8.06;100.00;99629.63;5071313;28;20037;-75
2024/03/30 08:30:29;;;;;;;19.90;13.80;;;;;;;8.05;100.00;99626.16;5073082;28;20032;-76
2024/03/30 08:32:54;;;;;;;18.45;14.07;;;;;;;8.04;100.00;99624.47;5071553;28;20384;-76
2024/03/30 08:35:20;;;;;;;19.67;14.90;;;;;;;8.03;100.00;99624.63;5073148;28;20033;-75
2024/03/30 08:37:45;;;;;;;18.95;15.27;;;;;;;8.02;100.00;99626.47;5072742;28;20128;-76
2024/03/30 08:40:11;;;;;;;18.77;15.63;;;;;;;8.05;100.00;99630.63;5072578;28;20056;-76
2024/03/30 08:42:36;;;;;;;20.42;16.58;;;;;;;8.06;100.00;99625.19;5071544;28;20143;-76
2024/03/30 08:45:02;;;;;;;20.77;15.23;;;;;;;8.08;100.00;99615.25;5072096;28;20020;-76
2024/03/30 08:47:27;;;;;;;22.40;16.15;;;;;;;8.08;100.00;99614.44;5072569;28;20085;-76
2024/03/30 08:49:52;;;;;;;24.98;16.63;;;;;;;8.07;100.00;99610.94;5072302;28;20426;-76
2024/03/30 08:52:18;;;;;;;22.83;16.33;;;;;;;8.09;100.00;99614.28;5070832;28;20036;-76
2024/03/30 08:54:43;;;;;;;25.45;17.30;;;;;;;8.14;100.00;99605.88;5054426;28;20036;-77
2024/03/30 08:57:08;;;;;;;27.70;17.05;;;;;;;8.15;100.00;99611.97;5071644;28;20156;-76
2024/03/30 08:59:34;;;;;;;29.48;18.05;;;;;;;8.14;100.00;99608.50;5072876;28;20036;-76
2024/03/30 09:01:59;;;;;;;31.33;18.85;;;;;;;8.10;100.00;99602.66;5071551;28;20028;-78
2024/03/30 09:04:24;;;;;;;32.80;19.25;;;;;;;8.08;100.00;99601.19;5072018;28;20033;-76
2024/03/30 09:06:50;;;;;;;34.13;19.85;;;;;;;8.07;100.00;99599.50;5071903;28;20029;-77
2024/03/30 09:09:15;;;;;;;32.55;20.75;;;;;;;8.10;100.00;99593.91;5069984;28;20041;-77
2024/03/30 09:11:41;;;;;;;31.75;20.60;;;;;;;8.08;100.00;99587.94;5071962;28;20111;-77
2024/03/30 09:14:06;;;;;;;33.55;20.27;;;;;;;8.08;100.00;99582.63;5071323;28;20124;-76
2024/03/30 09:16:32;;;;;;;29.55;18.52;;;;;;;8.07;100.00;99591.56;5071721;28;20491;-76
2024/03/30 09:18:57;;;;;;;24.85;17.23;;;;;;;8.04;100.00;99584.75;5071791;28;20037;-77
2024/03/30 09:21:22;;;;;;;20.23;15.05;;;;;;;8.01;100.00;99590.34;5071857;28;20029;-77
2024/03/30 09:23:48;;;;;;;20.52;14.55;;;;;;;7.97;100.00;99588.97;5071952;28;20036;-77
2024/03/30 09:26:13;;;;;;;21.52;12.57;;;;;;;7.94;100.00;99568.09;5071686;28;20055;-76
2024/03/30 09:28:38;;;;;;;21.00;14.80;;;;;;;7.94;100.00;99576.03;5071720;28;20033;-76
2024/03/30 09:31:03;;;;;;;18.05;13.80;;;;;;;7.94;100.00;99576.03;5071201;28;20052;-77
2024/03/30 09:33:29;;;;;;;17.38;13.60;;;;;;;7.92;100.00;99572.72;5071474;28;20059;-77
2024/03/30 09:35:55;;;;;;;13.15;10.30;;;;;;;7.91;100.00;99579.84;5071507;28;20037;-76
2024/03/30 09:38:21;;;;;;;16.55;10.75;;;;;;;7.89;100.00;99565.91;5071083;28;20029;-76
2024/03/30 09:40:54;;;;;;;10.60;7.93;;;;;;;7.86;100.00;99563.56;5071737;28;20039;-76
2024/03/30 09:43:20;;;;;;;13.40;8.50;;;;;;;7.83;100.00;99555.94;5070841;28;20025;-77
2024/03/30 09:45:47;;;;;;;11.90;7.82;;;;;;;7.84;100.00;99565.56;5071344;28;20058;-77
2024/03/30 09:48:13;;;;;;;11.27;7.40;;;;;;;7.84;100.00;99565.56;5070883;28;20025;-77
2024/03/30 09:50:39;;;;;;;11.13;7.25;;;;;;;7.83;100.00;99558.59;5071469;28;20078;-76
2024/03/30 09:53:06;;;;;;;12.00;7.35;;;;;;;7.84;100.00;99554.97;5071564;28;20464;-76
2024/03/30 09:55:32;;;;;;;12.00;6.80;;;;;;;7.80;100.00;99564.19;5071058;28;20052;-76
2024/03/30 09:57:59;;;;;;;11.05;6.82;;;;;;;7.80;100.00;99566.84;5070994;28;20088;-77
2024/03/30 10:00:27;;;;;;;8.95;5.90;;;;;;;7.78;100.00;99571.47;5070714;28;20077;-76
2024/03/30 10:02:53;;;;;;;7.72;5.60;;;;;;;7.77;100.00;99572.44;5070610;28;20520;-75
2024/03/30 10:05:18;;;;;;;8.45;5.75;;;;;;;7.74;100.00;99580.69;5070550;28;20042;-77
2024/03/30 10:07:53;;;;;;;6.03;4.30;;;;;;;7.74;100.00;99581.50;5069381;28;20044;-76
2024/03/30 10:10:20;;;;;;;5.32;3.10;;;;;;;7.70;100.00;99588.13;5070592;28;20036;-77
2024/03/30 10:13:02;;;;;;;6.00;2.40;;;;;;;7.69;100.00;99588.25;5070490;28;20028;-76
2024/03/30 10:15:49;;;;;;;2.42;2.22;;;;;;;7.65;100.00;99593.00;5070051;28;20024;-77
2024/03/30 10:18:16;;;;;;;3.80;2.60;;;;;;;7.61;100.00;99585.53;5069206;28;20035;-77
2024/03/30 10:20:41;;;;;;;8.10;2.97;;;;;;;7.61;100.00;99590.81;5069381;28;20037;-76
2024/03/30 10:23:07;;;;;;;3.92;2.67;;;;;;;7.59;100.00;99589.16;5068667;28;20124;-76
2024/03/30 10:25:35;;;;;;;4.97;2.80;;;;;;;7.56;100.00;99580.69;5047857;28;20135;-77
2024/03/30 10:28:00;;;;;;;6.88;2.83;;;;;;;7.56;100.00;99578.84;5047772;28;20044;-77
2024/03/30 10:30:26;;;;;;;4.30;2.78;;;;;;;7.61;100.00;99578.41;5047290;28;20071;-76
2024/03/30 10:32:54;;;;;;;5.68;3.00;;;;;;;7.64;100.00;99577.28;5047660;28;20113;-77
2024/03/30 10:35:21;;;;;;;4.53;2.50;;;;;;;7.65;100.00;99577.13;5046574;28;20033;-77
2024/03/30 10:37:49;;;;;;;6.57;2.55;;;;;;;7.67;100.00;99588.38;5047876;28;20064;-78
2024/03/30 10:40:18;;;;;;;13.02;3.00;;;;;;;7.67;100.00;99598.16;5046770;28;20059;-77
2024/03/30 10:42:43;;;;;;;4.53;2.60;;;;;;;7.67;100.00;99601.63;5046085;28;20044;-77
2024/03/30 10:45:09;;;;;;;4.95;2.78;;;;;;;7.67;100.00;99606.09;5045883;28;20039;-77
2024/03/30 10:47:36;;;;;;;6.57;2.80;;;;;;;7.66;100.00;99602.63;5046208;28;20124;-78
2024/03/30 10:50:02;;;;;;;3.45;2.35;;;;;;;7.67;100.00;99595.50;5047634;28;20059;-78
2024/03/30 10:52:28;;;;;;;4.40;2.60;;;;;;;7.71;100.00;99595.06;5047022;28;20037;-78
2024/03/30 10:54:55;;;;;;;3.70;2.88;;;;;;;7.77;100.00;99593.63;5046877;28;20477;-78
2024/03/30 10:57:22;;;;;;;4.65;2.95;;;;;;;7.79;100.00;99596.94;5046753;28;20055;-78
2024/03/30 10:59:48;;;;;;;6.78;3.13;;;;;;;7.82;100.00;99598.47;5047096;28;20124;-77
2024/03/30 11:02:22;;;;;;;3.90;2.75;;;;;;;7.89;100.00;99610.94;5047113;28;20105;-78
2024/03/30 11:04:50;;;;;;;2.70;2.03;;;;;;;7.91;100.00;99597.53;5047479;28;20068;-76
2024/03/30 11:07:15;;;;;;;4.35;2.20;;;;;;;7.91;100.00;99595.75;5045522;28;20436;-76
2024/03/30 11:09:42;;;;;;;3.10;2.00;;;;;;;7.88;100.00;99598.69;5059445;28;20048;-77
2024/03/30 11:12:12;;;;;;;3.70;2.20;;;;;;;7.86;100.00;99592.72;5066285;28;20133;-75
2024/03/30 11:14:38;;;;;;;4.25;2.00;;;;;;;7.83;100.00;99608.06;5069358;28;20383;-75
2024/03/30 11:17:18;;;;;;;3.15;1.95;;;;;;;7.80;100.00;99609.19;5070061;28;20085;-76
2024/03/30 11:20:11;;;;;;;2.20;2.00;;;;;;;7.81;100.00;99617.97;5070154;28;20124;-76
2024/03/30 11:22:57;;;;;;;3.40;2.20;;;;;;;7.77;100.00;99602.38;5069686;28;20028;-76
2024/03/30 11:25:26;;;;;;;3.42;2.40;;;;;;;7.77;100.00;99601.56;5072524;28;20028;-76
2024/03/30 11:28:05;;;;;;;6.93;2.28;;;;;;;7.80;100.00;99622.44;5073958;28;20107;-75
2024/03/30 11:30:44;;;;;;;3.00;2.70;;;;;;;7.76;100.00;99621.06;5073818;28;20028;-77
2024/03/30 11:33:26;;;;;;;5.50;2.70;;;;;;;7.73;100.00;99624.03;5074042;28;20035;-77